sensor_id;sensor_type;location;lat;lon;timestamp;P1;durP1;ratioP1;P2;durP2;ratioP2
7239;SDS011;3661;53.288;10.458;2024-01-15T00:01:42;1085.85;;;999.90;;
7239;SDS011;3661;53.288;10.458;2024-01-15T00:04:14;1014.50;;;953.15;;
7239;SDS011;3661;53.288;10.458;2024-01-15T00:06:46;982.08;;;920.70;;
7239;SDS011;3661;53.288;10.458;2024-01-15T00:09:19;972.80;;;911.58;;
7239;SDS011;3661;53.288;10.458;2024-01-15T00:11:52;972.58;;;912.30;;
7239;SDS011;3661;53.288;10.458;2024-01-15T00:14:24;948.60;;;888.13;;
7239;SDS011;3661;53.288;10.458;2024-01-15T00:16:56;935.85;;;876.50;;
7239;SDS011;3661;53.288;10.458;2024-01-15T00:19:28;940.67;;;881.03;;
7239;SDS011;3661;53.288;10.458;2024-01-15T00:22:02;941.67;;;882.25;;
7239;SDS011;3661;53.288;10.458;2024-01-15T00:24:34;920.45;;;860.67;;
7239;SDS011;3661;53.288;10.458;2024-01-15T00:27:11;936.63;;;877.92;;
7239;SDS011;3661;53.288;10.458;2024-01-15T00:29:43;899.33;;;841.58;;
7239;SDS011;3661;53.288;10.458;2024-01-15T00:32:15;917.58;;;859.45;;
7239;SDS011;3661;53.288;10.458;2024-01-15T00:34:47;918.47;;;859.92;;
7239;SDS011;3661;53.288;10.458;2024-01-15T00:37:20;902.08;;;844.20;;
7239;SDS011;3661;53.288;10.458;2024-01-15T00:39:52;871.83;;;815.05;;
7239;SDS011;3661;53.288;10.458;2024-01-15T00:42:28;886.88;;;829.92;;
7239;SDS011;3661;53.288;10.458;2024-01-15T00:45:00;872.00;;;815.47;;
7239;SDS011;3661;53.288;10.458;2024-01-15T00:47:32;866.90;;;810.65;;
7239;SDS011;3661;53.288;10.458;2024-01-15T00:50:05;837.35;;;781.88;;
7239;SDS011;3661;53.288;10.458;2024-01-15T00:52:38;872.10;;;815.93;;
7239;SDS011;3661;53.288;10.458;2024-01-15T00:55:10;844.22;;;788.03;;
7239;SDS011;3661;53.288;10.458;2024-01-15T00:57:43;858.13;;;801.25;;
7239;SDS011;3661;53.288;10.458;2024-01-15T01:00:16;843.55;;;787.72;;
7239;SDS011;3661;53.288;10.458;2024-01-15T01:02:50;857.67;;;800.95;;
7239;SDS011;3661;53.288;10.458;2024-01-15T01:05:22;834.07;;;778.27;;
7239;SDS011;3661;53.288;10.458;2024-01-15T01:07:54;834.17;;;778.67;;
7239;SDS011;3661;53.288;10.458;2024-01-15T01:10:26;827.28;;;771.30;;
7239;SDS011;3661;53.288;10.458;2024-01-15T01:13:00;831.75;;;776.50;;
7239;SDS011;3661;53.288;10.458;2024-01-15T01:15:32;822.17;;;767.57;;
7239;SDS011;3661;53.288;10.458;2024-01-15T01:18:04;822.25;;;766.75;;
7239;SDS011;3661;53.288;10.458;2024-01-15T01:20:36;811.50;;;756.20;;
7239;SDS011;3661;53.288;10.458;2024-01-15T01:23:08;809.55;;;755.15;;
7239;SDS011;3661;53.288;10.458;2024-01-15T01:25:40;814.72;;;760.42;;
7239;SDS011;3661;53.288;10.458;2024-01-15T01:28:14;793.90;;;739.22;;
7239;SDS011;3661;53.288;10.458;2024-01-15T01:30:46;799.85;;;745.80;;
7239;SDS011;3661;53.288;10.458;2024-01-15T01:33:18;809.03;;;754.83;;
7239;SDS011;3661;53.288;10.458;2024-01-15T01:35:50;790.28;;;736.75;;
7239;SDS011;3661;53.288;10.458;2024-01-15T01:38:23;762.53;;;708.03;;
7239;SDS011;3661;53.288;10.458;2024-01-15T01:40:55;773.85;;;720.53;;
7239;SDS011;3661;53.288;10.458;2024-01-15T01:43:28;783.40;;;729.65;;
7239;SDS011;3661;53.288;10.458;2024-01-15T01:46:01;777.17;;;723.78;;
7239;SDS011;3661;53.288;10.458;2024-01-15T01:48:33;774.88;;;720.50;;
7239;SDS011;3661;53.288;10.458;2024-01-15T01:51:05;754.28;;;701.33;;
7239;SDS011;3661;53.288;10.458;2024-01-15T01:53:38;764.42;;;711.30;;
7239;SDS011;3661;53.288;10.458;2024-01-15T01:56:10;784.45;;;730.95;;
7239;SDS011;3661;53.288;10.458;2024-01-15T01:58:44;752.30;;;700.05;;
7239;SDS011;3661;53.288;10.458;2024-01-15T02:01:18;770.25;;;716.92;;
7239;SDS011;3661;53.288;10.458;2024-01-15T02:03:51;768.30;;;714.97;;
7239;SDS011;3661;53.288;10.458;2024-01-15T02:06:23;743.33;;;690.78;;
7239;SDS011;3661;53.288;10.458;2024-01-15T02:08:55;737.83;;;685.67;;
7239;SDS011;3661;53.288;10.458;2024-01-15T02:11:27;766.05;;;713.33;;
7239;SDS011;3661;53.288;10.458;2024-01-15T02:14:01;776.75;;;723.83;;
7239;SDS011;3661;53.288;10.458;2024-01-15T02:16:33;752.20;;;699.53;;
7239;SDS011;3661;53.288;10.458;2024-01-15T02:19:06;741.83;;;689.88;;
7239;SDS011;3661;53.288;10.458;2024-01-15T02:21:38;757.43;;;704.83;;
7239;SDS011;3661;53.288;10.458;2024-01-15T02:24:11;750.90;;;698.25;;
7239;SDS011;3661;53.288;10.458;2024-01-15T02:26:44;741.60;;;689.83;;
7239;SDS011;3661;53.288;10.458;2024-01-15T02:29:16;732.90;;;680.90;;
7239;SDS011;3661;53.288;10.458;2024-01-15T02:31:49;719.00;;;667.78;;
7239;SDS011;3661;53.288;10.458;2024-01-15T02:34:24;726.73;;;674.40;;
7239;SDS011;3661;53.288;10.458;2024-01-15T02:36:56;743.97;;;692.15;;
7239;SDS011;3661;53.288;10.458;2024-01-15T02:39:30;717.28;;;665.33;;
7239;SDS011;3661;53.288;10.458;2024-01-15T02:42:02;728.00;;;676.53;;
7239;SDS011;3661;53.288;10.458;2024-01-15T02:44:34;736.20;;;684.83;;
7239;SDS011;3661;53.288;10.458;2024-01-15T02:47:06;723.97;;;673.00;;
7239;SDS011;3661;53.288;10.458;2024-01-15T02:49:38;727.00;;;675.20;;
7239;SDS011;3661;53.288;10.458;2024-01-15T02:52:10;721.08;;;670.10;;
7239;SDS011;3661;53.288;10.458;2024-01-15T02:54:44;714.33;;;662.72;;
7239;SDS011;3661;53.288;10.458;2024-01-15T02:57:16;720.80;;;669.33;;
7239;SDS011;3661;53.288;10.458;2024-01-15T02:59:48;714.10;;;662.83;;
7239;SDS011;3661;53.288;10.458;2024-01-15T03:02:21;724.47;;;673.05;;
7239;SDS011;3661;53.288;10.458;2024-01-15T03:04:53;712.90;;;662.13;;
7239;SDS011;3661;53.288;10.458;2024-01-15T03:07:26;710.17;;;658.67;;
7239;SDS011;3661;53.288;10.458;2024-01-15T03:10:01;706.70;;;655.10;;
7239;SDS011;3661;53.288;10.458;2024-01-15T03:12:33;701.58;;;649.75;;
7239;SDS011;3661;53.288;10.458;2024-01-15T03:15:05;722.80;;;671.08;;
7239;SDS011;3661;53.288;10.458;2024-01-15T03:17:38;717.13;;;665.90;;
7239;SDS011;3661;53.288;10.458;2024-01-15T03:20:10;719.05;;;668.28;;
7239;SDS011;3661;53.288;10.458;2024-01-15T03:22:42;712.42;;;660.83;;
7239;SDS011;3661;53.288;10.458;2024-01-15T03:25:16;707.17;;;656.22;;
7239;SDS011;3661;53.288;10.458;2024-01-15T03:27:49;717.92;;;665.70;;
7239;SDS011;3661;53.288;10.458;2024-01-15T03:30:21;710.53;;;659.37;;
7239;SDS011;3661;53.288;10.458;2024-01-15T03:32:53;713.13;;;661.63;;
7239;SDS011;3661;53.288;10.458;2024-01-15T03:35:25;700.78;;;649.67;;
7239;SDS011;3661;53.288;10.458;2024-01-15T03:37:59;707.25;;;656.47;;
7239;SDS011;3661;53.288;10.458;2024-01-15T03:40:32;686.63;;;636.22;;
7239;SDS011;3661;53.288;10.458;2024-01-15T03:43:05;702.55;;;651.53;;
7239;SDS011;3661;53.288;10.458;2024-01-15T03:45:37;691.92;;;640.67;;
7239;SDS011;3661;53.288;10.458;2024-01-15T03:48:09;701.40;;;649.83;;
7239;SDS011;3661;53.288;10.458;2024-01-15T03:50:41;693.88;;;643.00;;
7239;SDS011;3661;53.288;10.458;2024-01-15T03:53:13;706.00;;;654.75;;
7239;SDS011;3661;53.288;10.458;2024-01-15T03:55:47;702.80;;;652.58;;
7239;SDS011;3661;53.288;10.458;2024-01-15T03:58:19;705.60;;;654.50;;
7239;SDS011;3661;53.288;10.458;2024-01-15T04:00:51;697.70;;;646.60;;
7239;SDS011;3661;53.288;10.458;2024-01-15T04:03:23;689.03;;;638.13;;
7239;SDS011;3661;53.288;10.458;2024-01-15T04:05:55;702.40;;;652.10;;
7239;SDS011;3661;53.288;10.458;2024-01-15T04:08:27;696.70;;;645.92;;
7239;SDS011;3661;53.288;10.458;2024-01-15T04:11:01;695.42;;;645.40;;
7239;SDS011;3661;53.288;10.458;2024-01-15T04:13:33;680.45;;;630.22;;
7239;SDS011;3661;53.288;10.458;2024-01-15T04:16:05;690.80;;;640.47;;
7239;SDS011;3661;53.288;10.458;2024-01-15T04:18:37;683.97;;;633.58;;
7239;SDS011;3661;53.288;10.458;2024-01-15T04:21:09;672.75;;;622.85;;
7239;SDS011;3661;53.288;10.458;2024-01-15T04:23:41;690.10;;;639.03;;
7239;SDS011;3661;53.288;10.458;2024-01-15T04:26:17;689.17;;;638.88;;
7239;SDS011;3661;53.288;10.458;2024-01-15T04:28:50;682.20;;;632.47;;
7239;SDS011;3661;53.288;10.458;2024-01-15T04:31:22;675.75;;;625.17;;
7239;SDS011;3661;53.288;10.458;2024-01-15T04:33:58;680.15;;;629.45;;
7239;SDS011;3661;53.288;10.458;2024-01-15T04:36:30;682.13;;;631.77;;
7239;SDS011;3661;53.288;10.458;2024-01-15T04:39:02;681.42;;;630.30;;
7239;SDS011;3661;53.288;10.458;2024-01-15T04:41:36;689.10;;;638.00;;
7239;SDS011;3661;53.288;10.458;2024-01-15T04:44:08;664.70;;;614.27;;
7239;SDS011;3661;53.288;10.458;2024-01-15T04:46:40;685.58;;;635.28;;
7239;SDS011;3661;53.288;10.458;2024-01-15T04:49:13;671.97;;;620.63;;
7239;SDS011;3661;53.288;10.458;2024-01-15T04:51:45;685.80;;;635.15;;
7239;SDS011;3661;53.288;10.458;2024-01-15T04:54:18;664.28;;;614.05;;
7239;SDS011;3661;53.288;10.458;2024-01-15T04:56:52;682.28;;;631.00;;
7239;SDS011;3661;53.288;10.458;2024-01-15T04:59:24;677.00;;;626.22;;
7239;SDS011;3661;53.288;10.458;2024-01-15T05:01:56;677.95;;;627.22;;
7239;SDS011;3661;53.288;10.458;2024-01-15T05:04:28;679.15;;;627.97;;
7239;SDS011;3661;53.288;10.458;2024-01-15T05:07:00;681.55;;;630.55;;
7239;SDS011;3661;53.288;10.458;2024-01-15T05:09:33;664.70;;;613.60;;
7239;SDS011;3661;53.288;10.458;2024-01-15T05:12:06;666.00;;;615.45;;
7239;SDS011;3661;53.288;10.458;2024-01-15T05:14:39;665.55;;;614.58;;
7239;SDS011;3661;53.288;10.458;2024-01-15T05:17:14;668.85;;;618.45;;
7239;SDS011;3661;53.288;10.458;2024-01-15T05:19:46;674.88;;;624.38;;
7239;SDS011;3661;53.288;10.458;2024-01-15T05:22:18;661.13;;;610.53;;
7239;SDS011;3661;53.288;10.458;2024-01-15T05:24:51;663.88;;;612.60;;
7239;SDS011;3661;53.288;10.458;2024-01-15T05:27:24;658.60;;;608.22;;
7239;SDS011;3661;53.288;10.458;2024-01-15T05:29:56;662.15;;;611.00;;
7239;SDS011;3661;53.288;10.458;2024-01-15T05:32:31;669.47;;;618.92;;
7239;SDS011;3661;53.288;10.458;2024-01-15T05:35:04;669.30;;;619.13;;
7239;SDS011;3661;53.288;10.458;2024-01-15T05:37:36;662.00;;;611.60;;
7239;SDS011;3661;53.288;10.458;2024-01-15T05:40:10;666.37;;;615.70;;
7239;SDS011;3661;53.288;10.458;2024-01-15T05:42:44;655.90;;;605.42;;
7239;SDS011;3661;53.288;10.458;2024-01-15T05:45:16;656.50;;;606.80;;
7239;SDS011;3661;53.288;10.458;2024-01-15T05:47:48;647.72;;;597.85;;
7239;SDS011;3661;53.288;10.458;2024-01-15T05:50:20;652.65;;;602.15;;
7239;SDS011;3661;53.288;10.458;2024-01-15T05:52:52;661.58;;;611.83;;
7239;SDS011;3661;53.288;10.458;2024-01-15T05:55:24;659.88;;;610.40;;
7239;SDS011;3661;53.288;10.458;2024-01-15T05:57:58;643.67;;;593.08;;
7239;SDS011;3661;53.288;10.458;2024-01-15T06:00:30;651.50;;;601.20;;
7239;SDS011;3661;53.288;10.458;2024-01-15T06:03:03;658.50;;;608.25;;
7239;SDS011;3661;53.288;10.458;2024-01-15T06:05:35;650.83;;;600.60;;
7239;SDS011;3661;53.288;10.458;2024-01-15T06:08:07;657.47;;;607.05;;
7239;SDS011;3661;53.288;10.458;2024-01-15T06:10:39;650.33;;;600.50;;
7239;SDS011;3661;53.288;10.458;2024-01-15T06:13:13;651.55;;;601.83;;
7239;SDS011;3661;53.288;10.458;2024-01-15T06:15:45;661.37;;;610.90;;
7239;SDS011;3661;53.288;10.458;2024-01-15T06:18:17;660.78;;;610.28;;
7239;SDS011;3661;53.288;10.458;2024-01-15T06:20:49;640.70;;;590.80;;
7239;SDS011;3661;53.288;10.458;2024-01-15T06:23:21;675.80;;;624.70;;
7239;SDS011;3661;53.288;10.458;2024-01-15T06:25:53;647.72;;;597.78;;
7239;SDS011;3661;53.288;10.458;2024-01-15T06:28:29;648.60;;;598.40;;
7239;SDS011;3661;53.288;10.458;2024-01-15T06:31:02;660.38;;;609.97;;
7239;SDS011;3661;53.288;10.458;2024-01-15T06:33:35;650.58;;;600.03;;
7239;SDS011;3661;53.288;10.458;2024-01-15T06:36:08;658.70;;;607.92;;
7239;SDS011;3661;53.288;10.458;2024-01-15T06:38:41;651.38;;;601.05;;
7239;SDS011;3661;53.288;10.458;2024-01-15T06:41:14;668.03;;;617.22;;
7239;SDS011;3661;53.288;10.458;2024-01-15T06:43:50;639.85;;;589.90;;
7239;SDS011;3661;53.288;10.458;2024-01-15T06:46:23;656.65;;;605.90;;
7239;SDS011;3661;53.288;10.458;2024-01-15T06:48:56;660.35;;;609.50;;
7239;SDS011;3661;53.288;10.458;2024-01-15T06:51:31;652.60;;;601.63;;
7239;SDS011;3661;53.288;10.458;2024-01-15T06:54:03;674.25;;;624.00;;
7239;SDS011;3661;53.288;10.458;2024-01-15T06:56:35;647.33;;;596.65;;
7239;SDS011;3661;53.288;10.458;2024-01-15T06:59:09;640.17;;;590.55;;
7239;SDS011;3661;53.288;10.458;2024-01-15T07:01:41;638.87;;;588.50;;
7239;SDS011;3661;53.288;10.458;2024-01-15T07:04:13;656.47;;;606.58;;
7239;SDS011;3661;53.288;10.458;2024-01-15T07:06:45;653.92;;;603.95;;
7239;SDS011;3661;53.288;10.458;2024-01-15T07:09:18;665.47;;;615.20;;
7239;SDS011;3661;53.288;10.458;2024-01-15T07:11:50;659.72;;;610.35;;
7239;SDS011;3661;53.288;10.458;2024-01-15T07:14:24;653.78;;;603.30;;
7239;SDS011;3661;53.288;10.458;2024-01-15T07:16:56;668.20;;;618.60;;
7239;SDS011;3661;53.288;10.458;2024-01-15T07:19:28;662.92;;;613.05;;
7239;SDS011;3661;53.288;10.458;2024-01-15T07:22:04;663.45;;;612.95;;
7239;SDS011;3661;53.288;10.458;2024-01-15T07:24:36;666.87;;;615.67;;
7239;SDS011;3661;53.288;10.458;2024-01-15T07:27:08;664.47;;;613.88;;
7239;SDS011;3661;53.288;10.458;2024-01-15T07:29:42;652.05;;;602.15;;
7239;SDS011;3661;53.288;10.458;2024-01-15T07:32:14;672.05;;;621.30;;
7239;SDS011;3661;53.288;10.458;2024-01-15T07:34:49;650.15;;;600.72;;
7239;SDS011;3661;53.288;10.458;2024-01-15T07:37:26;656.58;;;605.95;;
7239;SDS011;3661;53.288;10.458;2024-01-15T07:39:58;671.85;;;621.92;;
7239;SDS011;3661;53.288;10.458;2024-01-15T07:42:31;670.95;;;620.33;;
7239;SDS011;3661;53.288;10.458;2024-01-15T07:45:04;665.17;;;615.17;;
7239;SDS011;3661;53.288;10.458;2024-01-15T07:47:37;661.28;;;610.88;;
7239;SDS011;3661;53.288;10.458;2024-01-15T07:50:09;660.40;;;610.30;;
7239;SDS011;3661;53.288;10.458;2024-01-15T07:52:42;665.20;;;614.90;;
7239;SDS011;3661;53.288;10.458;2024-01-15T07:55:14;643.87;;;594.30;;
7239;SDS011;3661;53.288;10.458;2024-01-15T07:57:46;646.85;;;597.20;;
7239;SDS011;3661;53.288;10.458;2024-01-15T08:00:20;648.65;;;599.35;;
7239;SDS011;3661;53.288;10.458;2024-01-15T08:02:53;651.80;;;602.37;;
7239;SDS011;3661;53.288;10.458;2024-01-15T08:05:25;643.90;;;594.60;;
7239;SDS011;3661;53.288;10.458;2024-01-15T08:08:00;641.85;;;591.92;;
7239;SDS011;3661;53.288;10.458;2024-01-15T08:10:34;655.85;;;605.50;;
7239;SDS011;3661;53.288;10.458;2024-01-15T08:13:06;653.50;;;604.00;;
7239;SDS011;3661;53.288;10.458;2024-01-15T08:15:40;662.97;;;612.63;;
7239;SDS011;3661;53.288;10.458;2024-01-15T08:18:12;641.00;;;590.50;;
7239;SDS011;3661;53.288;10.458;2024-01-15T08:20:44;647.55;;;596.90;;
7239;SDS011;3661;53.288;10.458;2024-01-15T08:23:17;639.58;;;589.40;;
7239;SDS011;3661;53.288;10.458;2024-01-15T08:25:50;638.05;;;587.97;;
7239;SDS011;3661;53.288;10.458;2024-01-15T08:28:22;650.17;;;600.30;;
7239;SDS011;3661;53.288;10.458;2024-01-15T08:30:56;653.25;;;603.05;;
7239;SDS011;3661;53.288;10.458;2024-01-15T08:33:30;651.33;;;601.10;;
7239;SDS011;3661;53.288;10.458;2024-01-15T08:36:06;650.67;;;600.95;;
7239;SDS011;3661;53.288;10.458;2024-01-15T08:38:38;649.15;;;598.83;;
7239;SDS011;3661;53.288;10.458;2024-01-15T08:41:11;652.58;;;602.53;;
7239;SDS011;3661;53.288;10.458;2024-01-15T08:43:43;648.78;;;599.38;;
7239;SDS011;3661;53.288;10.458;2024-01-15T08:46:16;646.67;;;596.30;;
7239;SDS011;3661;53.288;10.458;2024-01-15T08:48:49;644.85;;;595.42;;
7239;SDS011;3661;53.288;10.458;2024-01-15T08:51:22;653.15;;;603.45;;
7239;SDS011;3661;53.288;10.458;2024-01-15T08:53:54;658.83;;;609.47;;
7239;SDS011;3661;53.288;10.458;2024-01-15T08:56:26;631.90;;;582.65;;
7239;SDS011;3661;53.288;10.458;2024-01-15T08:58:58;665.33;;;615.45;;
7239;SDS011;3661;53.288;10.458;2024-01-15T09:01:32;648.38;;;598.97;;
7239;SDS011;3661;53.288;10.458;2024-01-15T09:04:04;650.40;;;600.97;;
7239;SDS011;3661;53.288;10.458;2024-01-15T09:06:36;657.67;;;607.70;;
7239;SDS011;3661;53.288;10.458;2024-01-15T09:09:08;622.03;;;573.13;;
7239;SDS011;3661;53.288;10.458;2024-01-15T09:11:40;644.47;;;594.50;;
7239;SDS011;3661;53.288;10.458;2024-01-15T09:14:12;663.78;;;613.92;;
7239;SDS011;3661;53.288;10.458;2024-01-15T09:16:46;645.20;;;595.17;;
7239;SDS011;3661;53.288;10.458;2024-01-15T09:19:20;650.08;;;600.08;;
7239;SDS011;3661;53.288;10.458;2024-01-15T09:21:52;645.37;;;595.87;;
7239;SDS011;3661;53.288;10.458;2024-01-15T09:24:25;646.70;;;596.55;;
7239;SDS011;3661;53.288;10.458;2024-01-15T09:26:57;643.73;;;594.10;;
7239;SDS011;3661;53.288;10.458;2024-01-15T09:29:30;633.33;;;583.53;;
7239;SDS011;3661;53.288;10.458;2024-01-15T09:32:04;643.78;;;594.10;;
7239;SDS011;3661;53.288;10.458;2024-01-15T09:34:37;645.13;;;595.95;;
7239;SDS011;3661;53.288;10.458;2024-01-15T09:37:09;645.40;;;595.45;;
7239;SDS011;3661;53.288;10.458;2024-01-15T09:39:41;649.95;;;600.17;;
7239;SDS011;3661;53.288;10.458;2024-01-15T09:42:14;632.22;;;583.13;;
7239;SDS011;3661;53.288;10.458;2024-01-15T09:44:47;640.83;;;591.40;;
7239;SDS011;3661;53.288;10.458;2024-01-15T09:47:21;635.90;;;585.60;;
7239;SDS011;3661;53.288;10.458;2024-01-15T09:49:55;638.42;;;588.85;;
7239;SDS011;3661;53.288;10.458;2024-01-15T09:52:31;661.55;;;610.85;;
7239;SDS011;3661;53.288;10.458;2024-01-15T09:55:04;644.95;;;594.75;;
7239;SDS011;3661;53.288;10.458;2024-01-15T09:57:38;630.63;;;580.85;;
7239;SDS011;3661;53.288;10.458;2024-01-15T10:00:11;638.60;;;587.97;;
7239;SDS011;3661;53.288;10.458;2024-01-15T10:02:45;634.07;;;584.67;;
7239;SDS011;3661;53.288;10.458;2024-01-15T10:05:17;638.33;;;589.08;;
7239;SDS011;3661;53.288;10.458;2024-01-15T10:07:50;641.28;;;591.47;;
7239;SDS011;3661;53.288;10.458;2024-01-15T10:10:24;627.05;;;577.95;;
7239;SDS011;3661;53.288;10.458;2024-01-15T10:13:00;653.00;;;603.00;;
7239;SDS011;3661;53.288;10.458;2024-01-15T10:15:33;664.10;;;613.50;;
7239;SDS011;3661;53.288;10.458;2024-01-15T10:21:09;634.22;;;584.45;;
7239;SDS011;3661;53.288;10.458;2024-01-15T10:23:44;655.30;;;605.10;;
7239;SDS011;3661;53.288;10.458;2024-01-15T10:26:24;643.63;;;593.25;;
7239;SDS011;3661;53.288;10.458;2024-01-15T10:28:57;634.60;;;584.53;;
7239;SDS011;3661;53.288;10.458;2024-01-15T10:31:32;646.97;;;597.07;;
7239;SDS011;3661;53.288;10.458;2024-01-15T10:34:12;657.80;;;607.00;;
7239;SDS011;3661;53.288;10.458;2024-01-15T10:36:48;654.38;;;604.63;;
7239;SDS011;3661;53.288;10.458;2024-01-15T10:39:25;649.70;;;599.50;;
7239;SDS011;3661;53.288;10.458;2024-01-15T10:42:03;650.20;;;600.47;;
7239;SDS011;3661;53.288;10.458;2024-01-15T10:44:36;646.30;;;596.80;;
7239;SDS011;3661;53.288;10.458;2024-01-15T10:47:10;660.42;;;610.00;;
7239;SDS011;3661;53.288;10.458;2024-01-15T10:49:44;654.57;;;605.30;;
7239;SDS011;3661;53.288;10.458;2024-01-15T10:52:17;647.05;;;597.78;;
7239;SDS011;3661;53.288;10.458;2024-01-15T10:54:50;652.58;;;603.38;;
7239;SDS011;3661;53.288;10.458;2024-01-15T10:57:23;657.40;;;608.05;;
7239;SDS011;3661;53.288;10.458;2024-01-15T11:00:01;661.60;;;611.35;;
7239;SDS011;3661;53.288;10.458;2024-01-15T11:02:36;655.78;;;605.67;;
7239;SDS011;3661;53.288;10.458;2024-01-15T11:05:10;660.15;;;610.28;;
7239;SDS011;3661;53.288;10.458;2024-01-15T11:07:42;657.25;;;607.15;;
7239;SDS011;3661;53.288;10.458;2024-01-15T11:13:14;649.83;;;600.37;;
7239;SDS011;3661;53.288;10.458;2024-01-15T11:15:55;664.40;;;614.90;;
7239;SDS011;3661;53.288;10.458;2024-01-15T11:18:31;650.13;;;600.03;;
7239;SDS011;3661;53.288;10.458;2024-01-15T11:21:26;650.47;;;601.55;;
7239;SDS011;3661;53.288;10.458;2024-01-15T11:24:00;665.47;;;615.65;;
7239;SDS011;3661;53.288;10.458;2024-01-15T11:26:43;648.33;;;598.45;;
7239;SDS011;3661;53.288;10.458;2024-01-15T11:29:28;642.88;;;593.30;;
7239;SDS011;3661;53.288;10.458;2024-01-15T11:32:02;651.50;;;602.43;;
7239;SDS011;3661;53.288;10.458;2024-01-15T11:34:50;654.60;;;604.93;;
7239;SDS011;3661;53.288;10.458;2024-01-15T11:40:38;655.35;;;606.60;;
7239;SDS011;3661;53.288;10.458;2024-01-15T11:43:12;639.35;;;590.90;;
7239;SDS011;3661;53.288;10.458;2024-01-15T11:45:47;652.22;;;603.28;;
7239;SDS011;3661;53.288;10.458;2024-01-15T11:48:23;662.67;;;612.93;;
7239;SDS011;3661;53.288;10.458;2024-01-15T11:51:16;652.05;;;602.90;;
7239;SDS011;3661;53.288;10.458;2024-01-15T11:53:54;642.85;;;594.05;;
7239;SDS011;3661;53.288;10.458;2024-01-15T11:56:33;659.80;;;611.22;;
7239;SDS011;3661;53.288;10.458;2024-01-15T11:59:06;658.07;;;609.27;;
7239;SDS011;3661;53.288;10.458;2024-01-15T12:01:39;630.95;;;582.30;;
7239;SDS011;3661;53.288;10.458;2024-01-15T12:04:11;653.35;;;603.53;;
7239;SDS011;3661;53.288;10.458;2024-01-15T12:06:46;656.92;;;608.42;;
7239;SDS011;3661;53.288;10.458;2024-01-15T12:09:21;639.13;;;590.72;;
7239;SDS011;3661;53.288;10.458;2024-01-15T12:11:54;636.37;;;587.40;;
7239;SDS011;3661;53.288;10.458;2024-01-15T12:14:37;630.50;;;581.65;;
7239;SDS011;3661;53.288;10.458;2024-01-15T12:17:10;648.92;;;599.92;;
7239;SDS011;3661;53.288;10.458;2024-01-15T12:19:43;655.00;;;605.13;;
7239;SDS011;3661;53.288;10.458;2024-01-15T12:22:16;637.42;;;588.08;;
7239;SDS011;3661;53.288;10.458;2024-01-15T12:24:57;630.60;;;583.10;;
7239;SDS011;3661;53.288;10.458;2024-01-15T12:27:29;641.58;;;593.35;;
7239;SDS011;3661;53.288;10.458;2024-01-15T12:30:02;630.60;;;582.20;;
7239;SDS011;3661;53.288;10.458;2024-01-15T12:32:37;644.90;;;596.35;;
7239;SDS011;3661;53.288;10.458;2024-01-15T12:35:10;641.42;;;593.03;;
7239;SDS011;3661;53.288;10.458;2024-01-15T12:37:43;630.05;;;581.28;;
7239;SDS011;3661;53.288;10.458;2024-01-15T12:56:59;621.88;;;573.30;;
7239;SDS011;3661;53.288;10.458;2024-01-15T13:03:23;621.65;;;573.80;;
7239;SDS011;3661;53.288;10.458;2024-01-15T13:30:01;625.85;;;577.55;;
7239;SDS011;3661;53.288;10.458;2024-01-15T13:32:33;625.53;;;577.90;;
7239;SDS011;3661;53.288;10.458;2024-01-15T13:35:06;638.30;;;589.55;;
7239;SDS011;3661;53.288;10.458;2024-01-15T13:37:43;619.15;;;571.45;;
7239;SDS011;3661;53.288;10.458;2024-01-15T13:40:15;648.33;;;599.78;;
7239;SDS011;3661;53.288;10.458;2024-01-15T13:42:50;635.85;;;587.03;;
7239;SDS011;3661;53.288;10.458;2024-01-15T13:45:24;635.60;;;587.22;;
7239;SDS011;3661;53.288;10.458;2024-01-15T13:47:56;627.97;;;579.60;;
7239;SDS011;3661;53.288;10.458;2024-01-15T13:50:29;631.90;;;584.53;;
7239;SDS011;3661;53.288;10.458;2024-01-15T13:53:01;619.13;;;571.42;;
7239;SDS011;3661;53.288;10.458;2024-01-15T13:55:34;631.55;;;584.03;;
7239;SDS011;3661;53.288;10.458;2024-01-15T13:58:06;632.60;;;585.50;;
7239;SDS011;3661;53.288;10.458;2024-01-15T14:00:40;620.43;;;573.53;;
7239;SDS011;3661;53.288;10.458;2024-01-15T14:03:12;635.70;;;587.60;;
7239;SDS011;3661;53.288;10.458;2024-01-15T14:05:45;593.35;;;546.00;;
7239;SDS011;3661;53.288;10.458;2024-01-15T14:08:17;623.00;;;575.70;;
7239;SDS011;3661;53.288;10.458;2024-01-15T14:10:49;633.80;;;585.53;;
7239;SDS011;3661;53.288;10.458;2024-01-15T14:13:22;640.72;;;592.05;;
7239;SDS011;3661;53.288;10.458;2024-01-15T14:15:55;618.70;;;570.45;;
7239;SDS011;3661;53.288;10.458;2024-01-15T14:18:28;623.05;;;574.97;;
7239;SDS011;3661;53.288;10.458;2024-01-15T14:21:00;638.47;;;590.55;;
7239;SDS011;3661;53.288;10.458;2024-01-15T14:23:32;626.95;;;578.63;;
7239;SDS011;3661;53.288;10.458;2024-01-15T14:26:04;613.22;;;565.40;;
7239;SDS011;3661;53.288;10.458;2024-01-15T14:28:37;633.20;;;585.53;;
7239;SDS011;3661;53.288;10.458;2024-01-15T14:39:10;605.67;;;557.63;;
7239;SDS011;3661;53.288;10.458;2024-01-15T14:41:42;632.15;;;583.88;;
7239;SDS011;3661;53.288;10.458;2024-01-15T14:44:15;626.10;;;578.30;;
7239;SDS011;3661;53.288;10.458;2024-01-15T14:46:47;624.70;;;576.33;;
7239;SDS011;3661;53.288;10.458;2024-01-15T14:49:20;634.03;;;586.63;;
7239;SDS011;3661;53.288;10.458;2024-01-15T14:51:52;626.95;;;578.95;;
7239;SDS011;3661;53.288;10.458;2024-01-15T14:57:53;630.85;;;582.15;;
7239;SDS011;3661;53.288;10.458;2024-01-15T15:03:53;637.33;;;588.93;;
7239;SDS011;3661;53.288;10.458;2024-01-15T15:09:52;622.17;;;574.22;;
7239;SDS011;3661;53.288;10.458;2024-01-15T15:33:07;626.50;;;578.60;;
7239;SDS011;3661;53.288;10.458;2024-01-15T15:39:07;631.15;;;582.72;;
7239;SDS011;3661;53.288;10.458;2024-01-15T15:48:17;631.70;;;583.08;;
7239;SDS011;3661;53.288;10.458;2024-01-15T15:54:16;632.30;;;584.55;;
7239;SDS011;3661;53.288;10.458;2024-01-15T16:10:38;622.55;;;575.00;;
7239;SDS011;3661;53.288;10.458;2024-01-15T16:26:58;612.25;;;564.30;;
7239;SDS011;3661;53.288;10.458;2024-01-15T16:47:10;630.28;;;582.05;;
7239;SDS011;3661;53.288;10.458;2024-01-15T16:53:09;619.33;;;571.72;;
7239;SDS011;3661;53.288;10.458;2024-01-15T16:59:08;613.17;;;565.08;;
7239;SDS011;3661;53.288;10.458;2024-01-15T17:05:09;608.47;;;561.03;;
7239;SDS011;3661;53.288;10.458;2024-01-15T17:11:08;608.22;;;560.67;;
7239;SDS011;3661;53.288;10.458;2024-01-15T17:13:41;619.07;;;571.43;;
7239;SDS011;3661;53.288;10.458;2024-01-15T17:16:13;598.17;;;550.53;;
7239;SDS011;3661;53.288;10.458;2024-01-15T17:18:45;603.60;;;555.88;;
7239;SDS011;3661;53.288;10.458;2024-01-15T17:21:18;605.63;;;557.72;;
7239;SDS011;3661;53.288;10.458;2024-01-15T17:23:50;593.50;;;546.57;;
7239;SDS011;3661;53.288;10.458;2024-01-15T17:26:22;608.90;;;560.90;;
7239;SDS011;3661;53.288;10.458;2024-01-15T17:28:55;605.87;;;558.00;;